createdAt,value
2022-08-08T00:00:56.572Z,18.11
2022-08-08T00:01:19.443Z,18.09
2022-08-08T00:02:33.357Z,18.08
2022-08-08T00:03:31.999Z,18.07
2022-08-08T00:04:31.120Z,18.06
2022-08-08T00:05:44.144Z,18.04
2022-08-08T00:06:38.360Z,18.03
2022-08-08T00:07:41.770Z,18.01
2022-08-08T00:08:49.160Z,17.99
2022-08-08T00:09:52.284Z,17.97
2022-08-08T00:10:53.808Z,17.96
2022-08-08T00:12:07.641Z,17.95
2022-08-08T00:13:01.130Z,17.93
2022-08-08T00:14:17.481Z,17.94
2022-08-08T00:15:08.834Z,17.93
2022-08-08T00:16:13.646Z,17.93
2022-08-08T00:17:23.377Z,17.93
2022-08-08T00:18:21.446Z,17.92
2022-08-08T00:19:24.008Z,17.92
2022-08-08T00:20:26.880Z,17.93
2022-08-08T00:21:29.855Z,17.91
2022-08-08T00:22:34.265Z,17.90
2022-08-08T00:23:42.352Z,17.89
2022-08-08T00:24:43.290Z,17.86
2022-08-08T00:25:50.865Z,17.85
2022-08-08T00:26:52.008Z,17.84
2022-08-08T00:27:54.676Z,17.83
2022-08-08T00:28:58.020Z,17.82
2022-08-08T00:30:00.628Z,17.81
2022-08-08T00:32:16.286Z,17.81
2022-08-08T00:32:20.712Z,17.79
2022-08-08T00:33:12.324Z,17.79
2022-08-08T00:34:19.870Z,17.76
2022-08-08T00:35:22.478Z,17.77
2022-08-08T00:36:25.728Z,17.75
2022-08-08T00:37:46.848Z,17.73
2022-08-08T00:38:51.954Z,17.72
2022-08-08T00:41:09.292Z,17.70
2022-08-08T00:41:09.466Z,17.69
2022-08-08T00:41:54.807Z,17.68
2022-08-08T00:42:51.242Z,17.65
2022-08-08T00:43:56.341Z,17.65
2022-08-08T00:44:58.376Z,17.63
2022-08-08T00:46:00.944Z,17.64
2022-08-08T00:47:04.637Z,17.62
2022-08-08T00:48:29.225Z,17.61
2022-08-08T00:49:22.059Z,17.61
2022-08-08T00:50:18.480Z,17.61
2022-08-08T00:51:22.080Z,17.58
2022-08-08T00:52:29.153Z,17.57
2022-08-08T00:53:30.996Z,17.56
2022-08-08T00:54:35.512Z,17.54
2022-08-08T00:55:53.216Z,17.52
2022-08-08T00:56:42.756Z,17.50
2022-08-08T00:57:57.086Z,17.50
2022-08-08T00:58:54.422Z,17.49
2022-08-08T00:59:56.235Z,17.48
2022-08-08T01:00:59.468Z,17.46
2022-08-08T01:02:03.940Z,17.43
2022-08-08T01:04:02.093Z,17.40
2022-08-08T01:04:13.486Z,17.35
2022-08-08T01:05:29.163Z,17.31
2022-08-08T01:06:27.750Z,17.30
2022-08-08T01:07:54.068Z,17.30
2022-08-08T01:08:31.104Z,17.29
2022-08-08T01:09:35.111Z,17.27
2022-08-08T01:10:38.280Z,17.27
2022-08-08T01:11:42.104Z,17.25
2022-08-08T01:12:46.853Z,17.23
2022-08-08T01:13:52.813Z,17.20
2022-08-08T01:15:00.359Z,17.19
2022-08-08T01:15:58.240Z,17.18
2022-08-08T01:17:01.876Z,17.17
2022-08-08T01:18:06.388Z,17.17
2022-08-08T01:19:13.690Z,17.16
2022-08-08T01:20:15.517Z,17.16
2022-08-08T01:21:34.560Z,17.15
2022-08-08T01:22:23.564Z,17.15
2022-08-08T01:24:02.853Z,17.14
2022-08-08T01:24:31.616Z,17.12
2022-08-08T01:25:40.283Z,17.12
2022-08-08T01:26:39.004Z,17.11
2022-08-08T01:27:44.782Z,17.11
2022-08-08T01:28:47.957Z,17.10
2022-08-08T01:29:59.407Z,17.05
2022-08-08T01:30:57.303Z,17.03
2022-08-08T01:32:06.727Z,17.02
2022-08-08T01:33:16.203Z,17.03
2022-08-08T01:34:10.280Z,17.03
2022-08-08T01:35:12.959Z,17.01
2022-08-08T01:36:15.931Z,17.00
2022-08-08T01:37:21.651Z,17.00
2022-08-08T01:38:23.008Z,17.01
2022-08-08T01:39:28.016Z,17.00
2022-08-08T01:40:31.115Z,17.01
2022-08-08T01:41:34.457Z,17.02
2022-08-08T01:42:38.844Z,17.01
2022-08-08T01:43:42.936Z,17.01
2022-08-08T01:44:50.587Z,17.01
2022-08-08T01:45:54.455Z,17.00
2022-08-08T01:46:54.599Z,17.00
2022-08-08T01:48:16.469Z,16.98
2022-08-08T01:49:02.296Z,16.98
2022-08-08T01:50:07.011Z,16.99
2022-08-08T01:51:48.684Z,16.98
2022-08-08T01:53:01.546Z,16.98
2022-08-08T01:55:15.914Z,16.99
2022-08-08T01:55:26.745Z,16.99
2022-08-08T01:56:29.409Z,16.98
2022-08-08T01:56:34.399Z,16.97
2022-08-08T01:58:11.950Z,16.96
2022-08-08T01:58:47.163Z,16.95
2022-08-08T02:00:00.938Z,16.95
2022-08-08T02:00:57.588Z,16.93
2022-08-08T02:02:02.852Z,16.94
2022-08-08T02:02:59.933Z,16.94
2022-08-08T02:04:03.120Z,16.95
2022-08-08T02:05:06.707Z,16.94
2022-08-08T02:06:10.600Z,16.94
2022-08-08T02:07:14.970Z,16.95
2022-08-08T02:08:19.482Z,16.96
2022-08-08T02:10:02.554Z,16.96
2022-08-08T02:10:30.005Z,16.96
2022-08-08T02:11:58.578Z,16.95
2022-08-08T02:12:35.627Z,16.95
2022-08-08T02:13:53.942Z,16.95
2022-08-08T02:14:49.744Z,16.95
2022-08-08T02:15:48.549Z,16.96
2022-08-08T02:16:51.833Z,16.97
2022-08-08T02:17:54.400Z,16.98
2022-08-08T02:18:58.879Z,17.00
2022-08-08T02:20:09.831Z,17.01
2022-08-08T02:21:05.753Z,17.02
2022-08-08T02:22:10.717Z,17.03
2022-08-08T02:23:16.351Z,17.03
2022-08-08T02:24:19.806Z,17.04
2022-08-08T02:25:23.693Z,17.06
2022-08-08T02:26:28.292Z,17.08
2022-08-08T02:27:40.317Z,17.10
2022-08-08T02:28:35.766Z,17.10
2022-08-08T02:29:41.511Z,17.12
2022-08-08T02:30:50.024Z,17.13
2022-08-08T02:31:58.840Z,17.15
2022-08-08T02:32:53.071Z,17.16
2022-08-08T02:34:07.906Z,17.21
2022-08-08T02:35:07.496Z,17.30
2022-08-08T02:36:05.672Z,17.42
2022-08-08T02:37:09.935Z,17.47
2022-08-08T02:38:13.030Z,17.49
2022-08-08T02:39:42.267Z,17.50
2022-08-08T02:40:20.505Z,17.57
2022-08-08T02:41:58.608Z,17.64
2022-08-08T02:42:38.163Z,17.68
2022-08-08T02:44:36.937Z,17.76
2022-08-08T02:44:56.715Z,17.91
2022-08-08T02:45:51.464Z,18.08
2022-08-08T02:46:47.328Z,18.15
2022-08-08T02:47:54.721Z,18.22
2022-08-08T02:48:56.252Z,18.32
2022-08-08T02:50:00.267Z,18.44
2022-08-08T02:51:02.879Z,18.60
2022-08-08T02:52:32.401Z,18.71
2022-08-08T02:53:10.003Z,18.82
2022-08-08T02:54:14.616Z,18.86
2022-08-08T02:55:20.566Z,18.96
2022-08-08T02:56:21.799Z,19.24
2022-08-08T02:57:25.284Z,19.51
2022-08-08T02:58:29.755Z,19.75
2022-08-08T02:59:57.195Z,19.77
2022-08-08T03:00:37.999Z,19.77
2022-08-08T03:01:49.897Z,20.00
2022-08-08T03:02:47.657Z,20.39
2022-08-08T03:05:04.334Z,21.13
2022-08-08T03:05:09.023Z,20.80
2022-08-08T03:06:00.667Z,21.29
2022-08-08T03:07:07.222Z,21.25
2022-08-08T03:08:08.872Z,21.03
2022-08-08T03:09:12.175Z,20.88
2022-08-08T03:10:17.678Z,20.74
2022-08-08T03:11:31.750Z,20.58
2022-08-08T03:12:36.521Z,20.67
2022-08-08T03:15:53.550Z,20.91
2022-08-08T03:15:59.074Z,21.01
2022-08-08T03:16:00.781Z,20.95
2022-08-08T03:16:43.309Z,20.79
2022-08-08T03:17:59.884Z,20.64
2022-08-08T03:18:52.305Z,20.52
2022-08-08T03:19:54.932Z,20.43
2022-08-08T03:20:58.045Z,20.39
2022-08-08T03:22:00.683Z,20.35
2022-08-08T03:23:04.489Z,20.28
2022-08-08T03:24:07.753Z,20.22
2022-08-08T03:25:17.766Z,20.08
2022-08-08T03:26:14.936Z,19.93
2022-08-08T03:27:17.504Z,19.81
2022-08-08T03:28:20.173Z,19.72
2022-08-08T03:29:38.060Z,19.69
2022-08-08T03:30:27.311Z,19.66
2022-08-08T03:31:30.447Z,19.56
2022-08-08T03:32:34.518Z,19.48
2022-08-08T03:33:55.190Z,19.41
2022-08-08T03:34:41.777Z,19.38
2022-08-08T03:35:44.387Z,19.33
2022-08-08T03:36:49.002Z,19.29
2022-08-08T03:38:53.437Z,19.26
2022-08-08T03:39:15.098Z,19.23
2022-08-08T03:40:02.419Z,19.21
2022-08-08T03:41:08.791Z,19.20
2022-08-08T03:42:28.290Z,19.16
2022-08-08T03:43:15.584Z,19.15
2022-08-08T03:44:18.545Z,19.12
2022-08-08T03:46:07.276Z,19.08
2022-08-08T03:46:32.397Z,19.05
2022-08-08T03:47:45.460Z,19.00
2022-08-08T03:49:32.869Z,18.97
2022-08-08T03:50:01.172Z,18.94
2022-08-08T03:50:45.821Z,18.94
2022-08-08T03:51:51.485Z,18.95
2022-08-08T03:52:54.558Z,18.94
2022-08-08T03:53:57.184Z,18.95
2022-08-08T03:55:10.946Z,18.95
2022-08-08T03:56:09.583Z,18.95
2022-08-08T03:58:30.142Z,18.94
2022-08-08T03:58:34.999Z,18.94
2022-08-08T03:59:22.697Z,18.92
2022-08-08T04:00:22.651Z,18.93
2022-08-08T04:02:02.289Z,18.94
2022-08-08T04:02:33.058Z,18.94
2022-08-08T04:04:00.255Z,18.96
2022-08-08T04:04:41.803Z,18.97
2022-08-08T04:05:49.953Z,18.99
2022-08-08T04:06:49.209Z,18.98
2022-08-08T04:07:52.083Z,18.99
2022-08-08T04:08:56.083Z,18.99
2022-08-08T04:10:05.050Z,18.99
2022-08-08T04:11:11.102Z,18.99
2022-08-08T04:12:07.783Z,18.98
2022-08-08T04:13:18.753Z,18.95
2022-08-08T04:14:34.545Z,18.95
2022-08-08T04:15:22.252Z,18.95
2022-08-08T04:16:40.071Z,18.97
2022-08-08T04:17:57.978Z,18.99
2022-08-08T04:18:41.917Z,18.99
2022-08-08T04:19:38.909Z,18.99
2022-08-08T04:20:41.831Z,19.01
2022-08-08T04:21:45.794Z,19.04
2022-08-08T04:22:51.451Z,19.07
2022-08-08T04:24:11.998Z,19.13
2022-08-08T04:24:57.659Z,19.18
2022-08-08T04:26:04.057Z,19.24
2022-08-08T04:27:10.355Z,19.30
2022-08-08T04:28:37.027Z,19.34
2022-08-08T04:29:15.014Z,19.38
2022-08-08T04:30:20.008Z,19.37
2022-08-08T04:31:30.894Z,19.38
2022-08-08T04:32:30.915Z,19.41
2022-08-08T04:33:31.838Z,19.44
2022-08-08T04:34:55.365Z,19.46
2022-08-08T04:35:40.904Z,19.49
2022-08-08T04:36:45.416Z,19.53
2022-08-08T04:37:49.286Z,19.57
2022-08-08T04:39:20.328Z,19.62
2022-08-08T04:40:06.494Z,19.67
2022-08-08T04:41:01.709Z,19.73
2022-08-08T04:42:04.865Z,19.81
2022-08-08T04:43:08.880Z,19.87
2022-08-08T04:44:11.784Z,19.94
2022-08-08T04:45:15.640Z,20.01
2022-08-08T04:46:18.750Z,20.07
2022-08-08T04:47:21.632Z,20.12
2022-08-08T04:48:26.044Z,20.18
2022-08-08T04:50:00.645Z,20.25
2022-08-08T04:50:38.264Z,20.30
2022-08-08T04:51:57.088Z,20.36
2022-08-08T04:52:42.748Z,20.43
2022-08-08T04:54:36.619Z,20.53
2022-08-08T04:54:51.689Z,20.65
2022-08-08T04:55:55.984Z,20.75
2022-08-08T04:56:59.138Z,20.85
2022-08-08T04:58:01.800Z,20.95
2022-08-08T04:59:04.519Z,20.98
2022-08-08T05:00:07.896Z,21.03
2022-08-08T05:01:12.381Z,21.09
2022-08-08T05:02:15.363Z,21.18
2022-08-08T05:04:08.238Z,21.22
2022-08-08T05:04:24.337Z,21.32
2022-08-08T05:05:45.181Z,21.41
2022-08-08T05:06:33.333Z,21.49
2022-08-08T05:07:42.644Z,21.59
2022-08-08T05:08:42.219Z,21.68
2022-08-08T05:09:44.840Z,21.79
2022-08-08T05:10:47.900Z,21.91
2022-08-08T05:11:56.978Z,22.06
2022-08-08T05:13:01.811Z,22.21
2022-08-08T05:14:02.131Z,22.40
2022-08-08T05:15:04.494Z,22.60
2022-08-08T05:16:53.573Z,22.77
2022-08-08T05:17:13.134Z,22.96
2022-08-08T05:18:17.605Z,23.14
2022-08-08T05:20:09.607Z,23.30
2022-08-08T05:20:24.815Z,23.48
2022-08-08T05:21:29.647Z,23.61
2022-08-08T05:22:34.171Z,23.74
2022-08-08T05:23:41.208Z,23.94
2022-08-08T05:24:41.344Z,24.06
2022-08-08T05:25:46.829Z,24.21
2022-08-08T05:26:49.856Z,24.43
2022-08-08T05:27:54.780Z,24.61
2022-08-08T05:29:04.757Z,24.71
2022-08-08T05:30:01.613Z,24.90
2022-08-08T05:31:19.340Z,25.03
2022-08-08T05:32:12.583Z,25.26
2022-08-08T05:33:16.923Z,25.46
2022-08-08T05:34:20.715Z,25.65
2022-08-08T05:35:23.749Z,25.75
2022-08-08T05:36:27.992Z,25.91
2022-08-08T05:37:49.189Z,25.95
2022-08-08T05:38:35.504Z,26.07
2022-08-08T05:39:38.237Z,26.21
2022-08-08T05:40:41.449Z,26.31
2022-08-08T05:41:54.814Z,26.39
2022-08-08T05:42:49.116Z,26.46
2022-08-08T05:44:04.205Z,26.52
2022-08-08T05:45:00.479Z,26.58
2022-08-08T05:46:03.282Z,26.70
2022-08-08T05:47:05.544Z,26.79
2022-08-08T05:48:09.914Z,26.93
2022-08-08T05:49:12.846Z,27.10
2022-08-08T05:50:17.773Z,27.30
2022-08-08T05:51:20.328Z,27.43
2022-08-08T05:52:35.576Z,27.64
2022-08-08T05:54:25.661Z,27.86
2022-08-08T05:54:50.927Z,28.01
2022-08-08T05:56:10.002Z,28.18
2022-08-08T05:56:42.169Z,28.33
2022-08-08T05:58:05.626Z,28.56
2022-08-08T05:58:57.020Z,28.80
2022-08-08T06:00:22.883Z,29.02
2022-08-08T06:00:59.201Z,29.26
2022-08-08T06:02:01.871Z,29.32
2022-08-08T06:03:04.567Z,29.38
2022-08-08T06:04:13.537Z,29.67
2022-08-08T06:05:33.335Z,29.87
2022-08-08T06:06:18.002Z,30.02
2022-08-08T06:07:22.269Z,30.22
2022-08-08T06:08:33.248Z,30.43
2022-08-08T06:09:41.836Z,30.62
2022-08-08T06:10:35.019Z,30.76
2022-08-08T06:11:45.761Z,30.88
2022-08-08T06:12:43.816Z,31.02
2022-08-08T06:13:49.297Z,31.24
2022-08-08T06:14:52.023Z,31.37
2022-08-08T06:15:56.432Z,31.33
2022-08-08T06:16:59.519Z,31.43
2022-08-08T06:18:20.009Z,31.44
2022-08-08T06:19:07.247Z,31.47
2022-08-08T06:20:11.652Z,31.42
2022-08-08T06:21:32.342Z,31.47
2022-08-08T06:22:35.622Z,31.47
2022-08-08T06:23:29.177Z,31.61
2022-08-08T06:24:31.027Z,31.64
2022-08-08T06:26:35.927Z,31.75
2022-08-08T06:26:44.411Z,31.74
2022-08-08T06:27:47.588Z,31.84
2022-08-08T06:28:47.469Z,31.83
2022-08-08T06:29:59.955Z,32.03
2022-08-08T06:30:56.352Z,32.21
2022-08-08T06:32:09.824Z,32.35
2022-08-08T06:33:04.744Z,32.45
2022-08-08T06:34:25.805Z,32.50
2022-08-08T06:36:06.431Z,32.66
2022-08-08T06:36:18.797Z,32.88
2022-08-08T06:37:24.940Z,33.03
2022-08-08T06:38:28.830Z,33.11
2022-08-08T06:39:33.400Z,33.12
2022-08-08T06:40:36.908Z,33.01
2022-08-08T06:41:39.981Z,32.97
2022-08-08T06:42:43.823Z,32.90
2022-08-08T06:43:47.597Z,32.75
2022-08-08T06:44:50.898Z,32.70
2022-08-08T06:45:53.776Z,32.70
2022-08-08T06:46:57.259Z,32.72
2022-08-08T06:48:01.917Z,32.69
2022-08-08T06:49:04.440Z,32.73
2022-08-08T06:50:08.957Z,32.83
2022-08-08T06:51:13.676Z,32.89
2022-08-08T06:52:18.109Z,32.98
2022-08-08T06:53:20.974Z,33.08
2022-08-08T06:54:23.628Z,33.24
2022-08-08T06:55:27.450Z,33.36
2022-08-08T06:56:30.965Z,33.38
2022-08-08T06:57:44.483Z,33.40
2022-08-08T06:58:39.987Z,33.40
2022-08-08T07:00:10.743Z,33.35
2022-08-08T07:00:48.856Z,33.40
2022-08-08T07:02:28.039Z,33.62
2022-08-08T07:02:56.156Z,33.82
2022-08-08T07:04:37.356Z,34.01
2022-08-08T07:05:04.916Z,33.99
2022-08-08T07:06:08.379Z,34.15
2022-08-08T07:07:12.229Z,34.30
2022-08-08T07:08:16.621Z,34.37
2022-08-08T07:09:21.032Z,34.16
2022-08-08T07:10:24.205Z,34.25
2022-08-08T07:11:26.812Z,34.40
2022-08-08T07:12:31.231Z,34.59
2022-08-08T07:13:34.720Z,34.68
2022-08-08T07:14:39.327Z,34.74
2022-08-08T07:16:06.229Z,34.83
2022-08-08T07:16:54.039Z,34.74
2022-08-08T07:18:01.548Z,34.82
2022-08-08T07:18:57.528Z,35.00
2022-08-08T07:20:00.558Z,35.31
2022-08-08T07:21:04.776Z,35.58
2022-08-08T07:22:18.328Z,35.86
2022-08-08T07:23:12.414Z,35.73
2022-08-08T07:24:16.866Z,35.83
2022-08-08T07:25:19.576Z,36.00
2022-08-08T07:26:28.980Z,36.15
2022-08-08T07:27:27.748Z,35.92
2022-08-08T07:28:31.981Z,36.11
2022-08-08T07:29:59.064Z,36.38
2022-08-08T07:30:39.296Z,36.61
2022-08-08T07:31:41.905Z,36.58
2022-08-08T07:32:44.874Z,36.70
2022-08-08T07:33:58.931Z,36.68
2022-08-08T07:35:00.475Z,36.76
2022-08-08T07:35:58.206Z,36.68
2022-08-08T07:37:01.491Z,36.56
2022-08-08T07:38:18.485Z,36.57
2022-08-08T07:39:10.861Z,36.47
2022-08-08T07:40:28.911Z,36.32
2022-08-08T07:41:23.538Z,36.26
2022-08-08T07:42:25.885Z,36.25
2022-08-08T07:43:36.828Z,36.17
2022-08-08T07:44:37.226Z,36.09
2022-08-08T07:45:51.468Z,35.99
2022-08-08T07:46:43.061Z,35.91
2022-08-08T07:47:45.857Z,35.72
2022-08-08T07:48:50.268Z,35.59
2022-08-08T07:49:54.003Z,35.46
2022-08-08T07:50:56.982Z,35.33
2022-08-08T07:51:59.544Z,35.19
2022-08-08T07:53:04.142Z,35.01
2022-08-08T07:54:06.688Z,34.87
2022-08-08T07:55:09.296Z,34.73
2022-08-08T07:56:12.819Z,34.57
2022-08-08T07:57:17.040Z,34.45
2022-08-08T07:58:19.983Z,34.32
2022-08-08T07:59:23.209Z,34.24
2022-08-08T08:00:25.915Z,34.19
2022-08-08T08:02:32.759Z,34.17
2022-08-08T08:02:38.565Z,34.19
2022-08-08T08:03:43.757Z,34.21
2022-08-08T08:04:42.942Z,34.24
2022-08-08T08:05:50.912Z,34.32
2022-08-08T08:06:50.663Z,34.36
2022-08-08T08:07:54.809Z,34.41
2022-08-08T08:08:57.724Z,34.60
2022-08-08T08:10:00.384Z,34.75
2022-08-08T08:11:04.861Z,35.01
2022-08-08T08:12:07.479Z,35.30
2022-08-08T08:13:17.666Z,35.50
2022-08-08T08:14:16.491Z,35.72
2022-08-08T08:15:19.058Z,36.06
2022-08-08T08:16:23.981Z,36.32
2022-08-08T08:17:36.469Z,36.64
2022-08-08T08:18:32.086Z,36.92
2022-08-08T08:19:45.377Z,37.14
2022-08-08T08:20:39.979Z,37.21
2022-08-08T08:21:52.526Z,37.39
2022-08-08T08:22:47.735Z,37.68
2022-08-08T08:23:50.987Z,37.88
2022-08-08T08:24:54.034Z,38.06
2022-08-08T08:25:58.601Z,38.06
2022-08-08T08:27:03.632Z,38.12
2022-08-08T08:28:09.214Z,38.35
2022-08-08T08:29:13.864Z,38.60
2022-08-08T08:30:16.910Z,38.61
2022-08-08T08:31:19.574Z,38.36
2022-08-08T08:32:35.741Z,38.15
2022-08-08T08:33:26.961Z,38.11
2022-08-08T08:34:32.504Z,38.34
2022-08-08T08:36:18.470Z,38.70
2022-08-08T08:36:38.614Z,38.93
2022-08-08T08:38:12.869Z,39.06
2022-08-08T08:38:49.326Z,38.93
2022-08-08T08:40:00.995Z,39.06
2022-08-08T08:40:55.538Z,39.27
2022-08-08T08:41:58.876Z,39.53
2022-08-08T08:43:02.964Z,39.79
2022-08-08T08:44:13.232Z,40.00
2022-08-08T08:45:22.792Z,40.04
2022-08-08T08:46:17.721Z,39.40
2022-08-08T08:47:20.197Z,39.16
2022-08-08T08:48:24.417Z,38.93
2022-08-08T08:49:33.510Z,39.00
2022-08-08T08:50:34.875Z,39.20
2022-08-08T08:51:37.804Z,39.39
2022-08-08T08:52:48.881Z,39.56
2022-08-08T08:53:56.562Z,39.76
2022-08-08T08:54:50.206Z,40.00
2022-08-08T08:55:54.615Z,40.22
2022-08-08T08:56:57.837Z,40.39
2022-08-08T08:58:00.507Z,40.46
2022-08-08T08:59:03.753Z,40.16
2022-08-08T09:00:15.583Z,39.69
2022-08-08T09:01:13.452Z,39.63
2022-08-08T09:02:17.523Z,39.51
2022-08-08T09:03:22.215Z,39.37
2022-08-08T09:04:30.309Z,39.57
2022-08-08T09:05:54.051Z,39.66
2022-08-08T09:06:35.789Z,39.55
2022-08-08T09:07:39.028Z,39.20
2022-08-08T09:08:42.971Z,39.38
2022-08-08T09:09:48.217Z,39.52
2022-08-08T09:10:52.221Z,39.82
2022-08-08T09:12:02.023Z,40.09
2022-08-08T09:12:59.586Z,40.30
2022-08-08T09:14:02.565Z,40.39
2022-08-08T09:15:06.189Z,40.64
2022-08-08T09:16:09.377Z,40.74
2022-08-08T09:17:18.301Z,40.82
2022-08-08T09:18:18.319Z,41.01
2022-08-08T09:19:39.386Z,41.19
2022-08-08T09:22:01.009Z,41.36
2022-08-08T09:22:01.645Z,41.32
2022-08-08T09:22:35.641Z,41.09
2022-08-08T09:23:40.758Z,41.11
2022-08-08T09:24:43.420Z,41.25
2022-08-08T09:25:54.800Z,41.37
2022-08-08T09:26:52.070Z,41.50
2022-08-08T09:27:56.636Z,41.12
2022-08-08T09:28:59.287Z,41.02
2022-08-08T09:30:03.805Z,41.19
2022-08-08T09:31:12.374Z,41.28
2022-08-08T09:32:14.528Z,41.17
2022-08-08T09:34:06.327Z,41.08
2022-08-08T09:34:32.293Z,41.02
2022-08-08T09:35:31.976Z,41.04
2022-08-08T09:36:30.319Z,40.60
2022-08-08T09:38:00.706Z,40.40
2022-08-08T09:38:53.265Z,40.13
2022-08-08T09:39:44.421Z,40.37
2022-08-08T09:40:52.573Z,40.28
2022-08-08T09:42:14.174Z,39.82
2022-08-08T09:42:57.599Z,39.85
2022-08-08T09:44:06.397Z,40.05
2022-08-08T09:45:08.165Z,40.19
2022-08-08T09:46:11.172Z,40.20
2022-08-08T09:47:26.622Z,40.08
2022-08-08T09:48:23.645Z,39.87
2022-08-08T09:49:42.441Z,40.20
2022-08-08T09:50:34.463Z,40.48
2022-08-08T09:52:01.456Z,40.40
2022-08-08T09:52:58.271Z,40.56
2022-08-08T09:53:54.886Z,40.62
2022-08-08T09:54:49.632Z,40.58
2022-08-08T09:56:05.108Z,40.68
2022-08-08T09:56:58.760Z,40.66
2022-08-08T09:58:03.376Z,40.80
2022-08-08T09:59:40.441Z,40.87
2022-08-08T10:00:36.023Z,40.84
2022-08-08T10:01:59.072Z,40.92
2022-08-08T10:02:24.465Z,40.67
2022-08-08T10:03:31.586Z,40.42
2022-08-08T10:04:41.948Z,40.45
2022-08-08T10:05:39.855Z,40.63
2022-08-08T10:06:45.099Z,40.96
2022-08-08T10:07:48.699Z,40.85
2022-08-08T10:08:51.736Z,40.92
2022-08-08T10:09:59.225Z,40.99
2022-08-08T10:10:59.889Z,40.93
2022-08-08T10:12:25.743Z,41.15
2022-08-08T10:13:14.759Z,41.16
2022-08-08T10:14:28.469Z,40.91
2022-08-08T10:15:17.646Z,41.01
2022-08-08T10:16:21.379Z,41.24
2022-08-08T10:18:05.898Z,41.15
2022-08-08T10:18:30.812Z,40.58
2022-08-08T10:19:38.305Z,40.21
2022-08-08T10:20:44.418Z,40.69
2022-08-08T10:21:50.966Z,41.16
2022-08-08T10:22:55.098Z,41.48
2022-08-08T10:23:59.038Z,41.29
2022-08-08T10:25:00.123Z,41.36
2022-08-08T10:26:03.263Z,41.59
2022-08-08T10:27:06.364Z,41.73
2022-08-08T10:28:15.087Z,41.62
2022-08-08T10:29:21.129Z,41.88
2022-08-08T10:31:00.483Z,41.85
2022-08-08T10:31:47.040Z,41.50
2022-08-08T10:32:30.263Z,41.65
2022-08-08T10:33:38.270Z,41.33
2022-08-08T10:34:38.854Z,41.62
2022-08-08T10:36:09.181Z,41.52
2022-08-08T10:36:46.447Z,41.68
2022-08-08T10:37:49.317Z,41.94
2022-08-08T10:38:53.787Z,42.17
2022-08-08T10:39:58.096Z,42.12
2022-08-08T10:41:01.737Z,41.81
2022-08-08T10:42:14.837Z,41.96
2022-08-08T10:43:10.764Z,42.21
2022-08-08T10:44:13.421Z,42.45
2022-08-08T10:45:18.016Z,42.63
2022-08-08T10:46:29.730Z,42.49
2022-08-08T10:47:26.045Z,42.55
2022-08-08T10:48:30.552Z,42.61
2022-08-08T10:50:01.418Z,42.20
2022-08-08T10:50:38.552Z,41.73
2022-08-08T10:51:50.907Z,41.89
2022-08-08T10:52:47.376Z,41.44
2022-08-08T10:53:57.844Z,41.81
2022-08-08T10:54:54.761Z,41.36
2022-08-08T10:55:57.283Z,41.28
2022-08-08T10:57:00.375Z,41.38
2022-08-08T10:58:02.922Z,41.42
2022-08-08T10:59:07.476Z,41.33
2022-08-08T11:00:10.826Z,41.55
2022-08-08T11:01:15.779Z,41.79
2022-08-08T11:02:18.662Z,42.09
2022-08-08T11:03:52.498Z,42.37
2022-08-08T11:04:29.575Z,42.14
2022-08-08T11:05:38.289Z,41.15
2022-08-08T11:06:36.717Z,41.19
2022-08-08T11:08:36.901Z,41.32
2022-08-08T11:08:50.099Z,40.64
2022-08-08T11:09:50.410Z,40.18
2022-08-08T11:10:53.541Z,40.36
2022-08-08T11:12:05.287Z,40.13
2022-08-08T11:14:06.555Z,40.68
2022-08-08T11:15:09.122Z,40.66
2022-08-08T11:16:32.326Z,40.81
2022-08-08T11:17:17.429Z,40.68
2022-08-08T11:18:21.840Z,40.96
2022-08-08T11:19:24.423Z,41.38
2022-08-08T11:20:28.568Z,41.49
2022-08-08T11:21:35.197Z,41.69
2022-08-08T11:22:35.998Z,41.54
2022-08-08T11:23:40.416Z,41.53
2022-08-08T11:24:43.179Z,41.34
2022-08-08T11:25:52.435Z,41.63
2022-08-08T11:26:56.711Z,41.74
2022-08-08T11:27:56.998Z,42.02
2022-08-08T11:29:00.664Z,41.79
2022-08-08T11:30:19.381Z,42.09
2022-08-08T11:31:08.712Z,42.40
2022-08-08T11:32:13.237Z,42.59
2022-08-08T11:33:16.310Z,42.51
2022-08-08T11:34:24.143Z,42.46
2022-08-08T11:35:42.705Z,42.78
2022-08-08T11:36:30.782Z,42.45
2022-08-08T11:38:36.497Z,42.41
2022-08-08T11:38:53.719Z,42.51
2022-08-08T11:39:43.307Z,42.64
2022-08-08T11:40:51.680Z,42.89
2022-08-08T11:41:52.532Z,42.98
2022-08-08T11:42:55.389Z,42.34
2022-08-08T11:43:58.672Z,42.51
2022-08-08T11:45:03.084Z,41.53
2022-08-08T11:47:18.164Z,40.77
2022-08-08T11:48:22.766Z,41.11
2022-08-08T11:49:27.684Z,41.63
2022-08-08T11:50:31.312Z,41.81
2022-08-08T11:51:39.951Z,42.25
2022-08-08T11:52:43.851Z,42.61
2022-08-08T11:53:50.603Z,41.87
2022-08-08T11:54:49.536Z,41.63
2022-08-08T11:55:52.304Z,40.88
2022-08-08T11:56:56.100Z,40.95
2022-08-08T11:58:04.155Z,41.19
2022-08-08T11:59:04.307Z,41.40
2022-08-08T12:00:09.806Z,41.05
2022-08-08T12:01:17.051Z,41.22
2022-08-08T12:02:31.761Z,41.64
2022-08-08T12:03:22.632Z,42.04
2022-08-08T12:04:26.260Z,41.95
2022-08-08T12:05:31.233Z,41.77
2022-08-08T12:06:36.093Z,41.63
2022-08-08T12:07:40.545Z,41.45
2022-08-08T12:08:43.172Z,41.08
2022-08-08T12:09:56.593Z,41.37
2022-08-08T12:10:52.300Z,41.64
2022-08-08T12:11:55.338Z,41.43
2022-08-08T12:12:58.152Z,41.22
2022-08-08T12:14:03.907Z,40.96
2022-08-08T12:15:05.266Z,40.95
2022-08-08T12:16:10.592Z,40.96
2022-08-08T12:17:13.231Z,40.84
2022-08-08T12:18:20.786Z,40.43
2022-08-08T12:19:22.028Z,40.39
2022-08-08T12:20:27.372Z,40.26
2022-08-08T12:21:59.312Z,39.92
2022-08-08T12:22:39.689Z,39.78
2022-08-08T12:23:43.174Z,39.61
2022-08-08T12:24:51.550Z,39.46
2022-08-08T12:25:52.681Z,39.62
2022-08-08T12:26:54.088Z,39.66
2022-08-08T12:27:59.174Z,39.54
2022-08-08T12:29:02.356Z,39.70
2022-08-08T12:30:15.992Z,39.44
2022-08-08T12:31:10.153Z,39.18
2022-08-08T12:32:13.638Z,39.60
2022-08-08T12:33:17.132Z,40.01
2022-08-08T12:34:21.250Z,40.39
2022-08-08T12:35:26.071Z,40.69
2022-08-08T12:36:34.622Z,40.92
2022-08-08T12:37:40.841Z,41.19
2022-08-08T12:38:40.060Z,40.97
2022-08-08T12:40:00.846Z,40.83
2022-08-08T12:40:56.459Z,41.09
2022-08-08T12:41:57.065Z,41.31
2022-08-08T12:42:58.260Z,41.48
2022-08-08T12:44:01.566Z,41.44
2022-08-08T12:45:53.471Z,41.59
2022-08-08T12:46:10.476Z,41.80
2022-08-08T12:47:14.186Z,42.17
2022-08-08T12:48:36.655Z,42.43
2022-08-08T12:49:25.189Z,42.44
2022-08-08T12:50:26.779Z,42.61
2022-08-08T12:51:39.742Z,42.82
2022-08-08T12:52:34.061Z,42.86
2022-08-08T12:53:42.412Z,42.85
2022-08-08T12:54:45.832Z,42.66
2022-08-08T12:56:17.884Z,42.41
2022-08-08T12:56:52.930Z,42.44
2022-08-08T12:57:56.659Z,42.49
2022-08-08T12:59:00.119Z,42.43
2022-08-08T13:00:05.011Z,42.53
2022-08-08T13:01:07.726Z,42.61
2022-08-08T13:02:12.160Z,42.55
2022-08-08T13:03:16.881Z,42.42
2022-08-08T13:04:24.543Z,42.17
2022-08-08T13:05:26.653Z,42.18
2022-08-08T13:06:29.806Z,42.12
2022-08-08T13:08:03.898Z,42.16
2022-08-08T13:08:37.032Z,42.06
2022-08-08T13:09:43.096Z,41.75
2022-08-08T13:10:55.520Z,41.75
2022-08-08T13:12:27.941Z,41.74
2022-08-08T13:12:54.380Z,41.36
2022-08-08T13:13:58.836Z,41.01
2022-08-08T13:15:01.649Z,40.93
2022-08-08T13:16:04.625Z,40.84
2022-08-08T13:17:07.194Z,40.68
2022-08-08T13:18:14.021Z,40.53
2022-08-08T13:19:17.844Z,40.42
2022-08-08T13:20:22.041Z,40.56
2022-08-08T13:21:25.036Z,40.73
2022-08-08T13:22:29.876Z,40.83
2022-08-08T13:23:36.865Z,40.79
2022-08-08T13:24:40.535Z,40.68
2022-08-08T13:25:41.658Z,40.79
2022-08-08T13:26:44.486Z,40.90
2022-08-08T13:27:47.540Z,40.87
2022-08-08T13:28:50.479Z,40.72
2022-08-08T13:29:53.510Z,40.57
2022-08-08T13:30:56.328Z,40.43
2022-08-08T13:31:58.855Z,40.24
2022-08-08T13:33:01.466Z,40.05
2022-08-08T13:34:06.307Z,39.86
2022-08-08T13:35:11.506Z,39.70
2022-08-08T13:36:14.394Z,39.53
2022-08-08T13:37:27.736Z,39.29
2022-08-08T13:38:23.729Z,39.04
2022-08-08T13:39:28.266Z,38.84
2022-08-08T13:40:31.207Z,38.63
2022-08-08T13:41:38.101Z,38.48
2022-08-08T13:42:40.546Z,38.24
2022-08-08T13:43:44.951Z,38.02
2022-08-08T13:44:49.464Z,37.78
2022-08-08T13:45:52.545Z,37.52
2022-08-08T13:46:57.377Z,37.27